Time;durP1;ratioP1;P1;durP2;ratioP2;P2;SDS_P1;SDS_P2;PMS_P1;PMS_P2;Temp;Humidity;BMP_temperature;BMP_pressure;BME280_temperature;BME280_humidity;BME280_pressure;Samples;Min_cycle;Max_cycle;Signal;HPM_P1;HPM_P2
2022/04/09 00:00:01;;;;;;;;;;;4.60;99.90;;;;;;5068434;28;19924;-78
2022/04/09 00:02:28;;;;;;;;;;;4.60;99.90;;;;;;5067867;28;20376;-77
2022/04/09 00:04:55;;;;;;;;;;;4.70;99.90;;;;;;5068209;28;20631;-76
2022/04/09 00:07:21;;;;;;;;;;;4.80;99.90;;;;;;5067919;28;19925;-77
2022/04/09 00:09:48;;;;;;;;;;;4.80;99.90;;;;;;5069743;28;19931;-77
2022/04/09 00:12:14;;;;;;;;;;;4.90;99.90;;;;;;5069233;28;19928;-77
2022/04/09 00:14:41;;;;;;;;;;;4.90;99.90;;;;;;5064761;28;19925;-75
2022/04/09 00:17:09;;;;;;;;;;;4.90;99.90;;;;;;5049695;28;19925;-76
2022/04/09 00:19:35;;;;;;;;;;;4.80;99.90;;;;;;5066917;28;19928;-76
2022/04/09 00:22:02;;;;;;;;;;;4.80;99.90;;;;;;5068700;28;19925;-77
2022/04/09 00:24:28;;;;;;;;;;;4.70;99.90;;;;;;5068016;28;19954;-76
2022/04/09 00:26:55;;;;;;;;;;;4.70;99.90;;;;;;5060358;28;20265;-76
2022/04/09 00:29:21;;;;;;;;;;;4.60;99.90;;;;;;5055666;28;19986;-76
2022/04/09 00:31:48;;;;;;;;;;;4.60;99.90;;;;;;5059511;28;19931;-76
2022/04/09 00:34:14;;;;;;;;;;;4.50;99.90;;;;;;5067065;28;19936;-76
2022/04/09 00:36:41;;;;;;;;;;;4.50;99.90;;;;;;5068923;28;19933;-76
2022/04/09 00:39:08;;;;;;;;;;;4.50;99.90;;;;;;5063140;28;20257;-76
2022/04/09 00:41:34;;;;;;;;;;;4.40;99.90;;;;;;5069332;28;19932;-76
2022/04/09 00:44:01;;;;;;;;;;;4.50;99.90;;;;;;5067211;28;19924;-76
2022/04/09 00:46:27;;;;;;;;;;;4.40;99.90;;;;;;5068921;28;19932;-76
2022/04/09 00:48:54;;;;;;;;;;;4.30;99.90;;;;;;5070548;28;20398;-78
2022/04/09 00:51:20;;;;;;;;;;;4.30;99.90;;;;;;5072288;28;19925;-76
2022/04/09 00:53:47;;;;;;;;;;;4.30;99.90;;;;;;5065948;28;19928;-76
2022/04/09 00:56:21;;;;;;;;;;;4.40;99.90;;;;;;5072125;28;19939;-76
2022/04/09 00:58:47;;;;;;;;;;;4.40;99.90;;;;;;5071335;28;19966;-76
2022/04/09 01:01:14;;;;;;;;;;;4.40;99.90;;;;;;5072703;28;19936;-76
2022/04/09 01:03:40;;;;;;;;;;;4.50;99.90;;;;;;5064818;28;19929;-76
2022/04/09 01:06:07;;;;;;;;;;;4.60;99.90;;;;;;5070228;28;19928;-76
2022/04/09 01:08:34;;;;;;;;;;;4.60;99.90;;;;;;5070824;28;19928;-76
2022/04/09 01:11:00;;;;;;;;;;;4.60;99.90;;;;;;5065195;28;19931;-76
2022/04/09 01:13:27;;;;;;;;;;;4.60;99.90;;;;;;5071421;28;19929;-77
2022/04/09 01:15:53;;;;;;;;;;;4.50;99.90;;;;;;5072919;28;19924;-76
2022/04/09 01:18:20;;;;;;;;;;;4.40;99.90;;;;;;5070353;28;20498;-76
2022/04/09 01:20:46;;;;;;;;;;;4.40;99.90;;;;;;5071304;28;20277;-76
2022/04/09 01:23:13;;;;;;;;;;;4.40;99.90;;;;;;5067650;28;19925;-76
2022/04/09 01:25:39;;;;;;;;;;;4.40;99.90;;;;;;5071682;28;20306;-76
2022/04/09 01:28:06;;;;;;;;;;;4.40;99.90;;;;;;5071300;28;19931;-76
2022/04/09 01:30:33;;;;;;;;;;;4.40;99.90;;;;;;5072428;28;19925;-76
2022/04/09 01:32:59;;;;;;;;;;;4.40;99.90;;;;;;5072463;28;19931;-78
2022/04/09 01:35:26;;;;;;;;;;;4.40;99.90;;;;;;5066922;28;19928;-76
2022/04/09 01:37:52;;;;;;;;;;;4.40;99.90;;;;;;5072389;28;19925;-78
2022/04/09 01:40:19;;;;;;;;;;;4.40;99.90;;;;;;5071637;28;19967;-76
2022/04/09 01:42:45;;;;;;;;;;;4.40;99.90;;;;;;5071065;28;20383;-77
2022/04/09 01:45:12;;;;;;;;;;;4.40;99.90;;;;;;5059831;28;19932;-76
2022/04/09 01:47:41;;;;;;;;;;;4.40;99.90;;;;;;5058828;28;19936;-76
2022/04/09 01:50:08;;;;;;;;;;;4.40;99.90;;;;;;5071852;28;19928;-76
2022/04/09 01:52:35;;;;;;;;;;;4.40;99.90;;;;;;5071993;28;19928;-77
2022/04/09 01:55:01;;;;;;;;;;;4.50;99.90;;;;;;5070356;28;20450;-79
2022/04/09 01:57:28;;;;;;;;;;;4.50;99.90;;;;;;5071108;28;19924;-76
2022/04/09 01:59:54;;;;;;;;;;;4.40;99.90;;;;;;5055496;28;19936;-76
2022/04/09 02:02:21;;;;;;;;;;;4.50;99.90;;;;;;5064649;28;20779;-77
2022/04/09 02:04:47;;;;;;;;;;;4.50;99.90;;;;;;5066256;28;19932;-76
2022/04/09 02:07:14;;;;;;;;;;;4.50;99.90;;;;;;5068398;28;19928;-76
2022/04/09 02:09:40;;;;;;;;;;;4.50;99.90;;;;;;5065097;28;19932;-76
2022/04/09 02:12:07;;;;;;;;;;;4.60;99.90;;;;;;5068152;28;19925;-76
2022/04/09 02:14:34;;;;;;;;;;;4.70;99.90;;;;;;5072036;28;20020;-76
2022/04/09 02:17:01;;;;;;;;;;;4.70;99.90;;;;;;5071365;28;19924;-78
2022/04/09 02:19:27;;;;;;;;;;;4.80;99.90;;;;;;5069963;28;20438;-76
2022/04/09 02:21:54;;;;;;;;;;;4.50;99.90;;;;;;5070755;28;19934;-76
2022/04/09 02:24:20;;;;;;;;;;;4.40;99.90;;;;;;5066829;28;20085;-76
2022/04/09 02:26:47;;;;;;;;;;;4.50;99.90;;;;;;5054664;28;19924;-77
2022/04/09 02:29:13;;;;;;;;;;;4.40;99.90;;;;;;5064643;28;20559;-77
2022/04/09 02:31:40;;;;;;;;;;;4.40;99.90;;;;;;5062462;28;19935;-77
2022/04/09 02:34:06;;;;;;;;;;;4.40;99.90;;;;;;5069987;28;19932;-77
2022/04/09 02:36:34;;;;;;;;;;;4.30;99.90;;;;;;5067805;28;19928;-77
2022/04/09 02:39:00;;;;;;;;;;;4.30;99.90;;;;;;5065565;28;19924;-77
2022/04/09 02:41:28;;;;;;;;;;;4.30;99.90;;;;;;5070298;28;19932;-77
2022/04/09 02:43:54;;;;;;;;;;;4.30;99.90;;;;;;5071398;28;20406;-77
2022/04/09 02:46:21;;;;;;;;;;;4.20;99.90;;;;;;5064871;28;19929;-77
2022/04/09 02:48:48;;;;;;;;;;;4.10;99.90;;;;;;5064446;28;19970;-77
2022/04/09 02:51:14;;;;;;;;;;;4.10;99.90;;;;;;5069752;28;19947;-77
2022/04/09 02:53:41;;;;;;;;;;;4.00;99.90;;;;;;5065838;28;19925;-77
2022/04/09 02:56:07;;;;;;;;;;;4.00;99.90;;;;;;5070373;28;19931;-76
2022/04/09 02:58:34;;;;;;;;;;;3.90;99.90;;;;;;5071079;28;19928;-77
2022/04/09 03:01:00;;;;;;;;;;;3.90;99.90;;;;;;5070188;28;19932;-77
2022/04/09 03:03:27;;;;;;;;;;;3.90;99.90;;;;;;5070028;28;19952;-77
2022/04/09 03:05:54;;;;;;;;;;;3.90;99.90;;;;;;5069919;28;19935;-77
2022/04/09 03:08:20;;;;;;;;;;;3.90;99.90;;;;;;5070260;28;19998;-77
2022/04/09 03:10:47;;;;;;;;;;;3.90;99.90;;;;;;5067722;28;19925;-77
2022/04/09 03:13:13;;;;;;;;;;;3.80;99.90;;;;;;5067743;28;19928;-77
2022/04/09 03:15:41;;;;;;;;;;;3.80;99.90;;;;;;5063646;28;19929;-77
2022/04/09 03:18:10;;;;;;;;;;;3.90;99.90;;;;;;5064038;28;19958;-79
2022/04/09 03:20:37;;;;;;;;;;;3.80;99.90;;;;;;5059052;28;19933;-77
2022/04/09 03:23:03;;;;;;;;;;;3.80;99.90;;;;;;5059004;28;19998;-77
2022/04/09 03:25:30;;;;;;;;;;;3.80;99.90;;;;;;5067865;28;20350;-77
2022/04/09 03:27:56;;;;;;;;;;;3.80;99.90;;;;;;5069610;28;19928;-77
2022/04/09 03:30:23;;;;;;;;;;;3.70;99.90;;;;;;5068952;28;19931;-77
2022/04/09 03:32:49;;;;;;;;;;;3.70;99.90;;;;;;5070512;28;19924;-77
2022/04/09 03:35:16;;;;;;;;;;;3.80;99.90;;;;;;5064412;28;19928;-77
2022/04/09 03:37:42;;;;;;;;;;;3.70;99.90;;;;;;5069025;28;20386;-77
2022/04/09 03:40:09;;;;;;;;;;;3.80;99.90;;;;;;5066466;28;19932;-78
2022/04/09 03:42:36;;;;;;;;;;;3.80;99.90;;;;;;5063921;28;20384;-77
2022/04/09 03:45:02;;;;;;;;;;;3.80;99.90;;;;;;5066140;28;19951;-77
2022/04/09 03:47:29;;;;;;;;;;;3.80;99.90;;;;;;5059803;28;19954;-77
2022/04/09 03:49:55;;;;;;;;;;;3.80;99.90;;;;;;5057681;28;19943;-77
2022/04/09 03:52:22;;;;;;;;;;;3.90;99.90;;;;;;5059881;28;20398;-77
2022/04/09 03:54:49;;;;;;;;;;;3.90;99.90;;;;;;5066404;28;19924;-77
2022/04/09 03:57:15;;;;;;;;;;;3.90;99.90;;;;;;5058641;28;19928;-77
2022/04/09 03:59:43;;;;;;;;;;;3.90;99.90;;;;;;5066683;28;19939;-77
2022/04/09 04:02:10;;;;;;;;;;;3.90;99.90;;;;;;5069439;28;19924;-78
2022/04/09 04:04:37;;;;;;;;;;;3.90;99.90;;;;;;5069346;28;19932;-77
2022/04/09 04:07:04;;;;;;;;;;;4.00;99.90;;;;;;5065438;28;19978;-77
2022/04/09 04:09:30;;;;;;;;;;;3.90;99.90;;;;;;5057151;28;19924;-77
2022/04/09 04:11:57;;;;;;;;;;;3.90;99.90;;;;;;5069736;28;19932;-77
2022/04/09 04:14:25;;;;;;;;;;;3.90;99.90;;;;;;5067830;28;19925;-77
2022/04/09 04:16:52;;;;;;;;;;;3.90;99.90;;;;;;5060375;28;19924;-77
2022/04/09 04:19:19;;;;;;;;;;;4.10;99.90;;;;;;5069097;28;19932;-76
2022/04/09 04:21:45;;;;;;;;;;;4.10;99.90;;;;;;5068172;28;19939;-76
2022/04/09 04:24:12;;;;;;;;;;;4.10;99.90;;;;;;5063372;28;19931;-78
2022/04/09 04:26:38;;;;;;;;;;;4.00;99.90;;;;;;5069625;28;19925;-77
2022/04/09 04:29:05;;;;;;;;;;;3.90;99.90;;;;;;5069598;28;19947;-77
2022/04/09 04:31:31;;;;;;;;;;;3.90;99.90;;;;;;5067120;28;19925;-77
2022/04/09 04:34:00;;;;;;;;;;;3.90;99.90;;;;;;5067279;28;20197;-77
2022/04/09 04:36:26;;;;;;;;;;;3.90;99.90;;;;;;5056760;28;20376;-76
2022/04/09 04:38:53;;;;;;;;;;;3.90;99.90;;;;;;5070005;28;20378;-76
2022/04/09 04:41:19;;;;;;;;;;;3.90;99.90;;;;;;5068677;28;19924;-77
2022/04/09 04:43:51;;;;;;;;;;;3.90;99.90;;;;;;5067816;28;19982;-78
2022/04/09 04:46:18;;;;;;;;;;;3.80;99.90;;;;;;5062781;28;19928;-77
2022/04/09 04:48:44;;;;;;;;;;;3.80;99.90;;;;;;5069451;28;19928;-77
2022/04/09 04:51:11;;;;;;;;;;;3.80;99.90;;;;;;5068722;28;19947;-77
2022/04/09 04:53:37;;;;;;;;;;;3.80;99.90;;;;;;5065599;28;19931;-77
2022/04/09 04:56:04;;;;;;;;;;;3.90;99.90;;;;;;5069069;28;19936;-77
2022/04/09 04:58:30;;;;;;;;;;;3.80;99.90;;;;;;5066986;28;19931;-77
2022/04/09 05:00:57;;;;;;;;;;;3.80;99.90;;;;;;5064499;28;20423;-77
2022/04/09 05:03:23;;;;;;;;;;;3.80;99.90;;;;;;5057079;28;19924;-77
2022/04/09 05:05:50;;;;;;;;;;;3.90;99.90;;;;;;5068128;28;19932;-77
2022/04/09 05:08:16;;;;;;;;;;;3.90;99.90;;;;;;5067605;28;19935;-79
2022/04/09 05:10:43;;;;;;;;;;;3.90;99.90;;;;;;5069477;28;19925;-76
2022/04/09 05:13:09;;;;;;;;;;;3.90;99.90;;;;;;5069370;28;19930;-77
2022/04/09 05:15:36;;;;;;;;;;;3.90;99.90;;;;;;5067589;28;20508;-77
2022/04/09 05:18:03;;;;;;;;;;;4.00;99.90;;;;;;5055081;28;20022;-77
2022/04/09 05:20:29;;;;;;;;;;;4.00;99.90;;;;;;5065186;28;19925;-77
2022/04/09 05:22:56;;;;;;;;;;;4.10;99.90;;;;;;5065208;28;20371;-78
2022/04/09 05:25:22;;;;;;;;;;;4.20;99.90;;;;;;5068556;28;20003;-77
2022/04/09 05:27:49;;;;;;;;;;;4.30;99.90;;;;;;5066854;28;19937;-77
2022/04/09 05:30:16;;;;;;;;;;;4.40;99.90;;;;;;5068208;28;19929;-76
2022/04/09 05:32:43;;;;;;;;;;;4.50;99.90;;;;;;5068807;28;19924;-77
2022/04/09 05:35:09;;;;;;;;;;;4.50;99.90;;;;;;5062294;28;19932;-77
2022/04/09 05:37:36;;;;;;;;;;;4.70;99.90;;;;;;5097275;28;19928;-77
2022/04/09 05:40:05;;;;;;;;;;;4.90;99.90;;;;;;5068670;28;19924;-75
2022/04/09 05:42:32;;;;;;;;;;;5.00;99.90;;;;;;5069966;28;19924;-77
2022/04/09 05:44:58;;;;;;;;;;;5.00;99.90;;;;;;5068025;28;19932;-77
2022/04/09 05:47:26;;;;;;;;;;;5.00;99.90;;;;;;5069537;28;19974;-77
2022/04/09 05:49:52;;;;;;;;;;;5.00;99.90;;;;;;5069491;28;20448;-77
2022/04/09 05:52:19;;;;;;;;;;;4.90;99.90;;;;;;5067387;28;19929;-79
2022/04/09 05:54:46;;;;;;;;;;;4.90;99.90;;;;;;5071162;28;19932;-76
2022/04/09 05:57:12;;;;;;;;;;;4.90;99.90;;;;;;5070617;28;19928;-77
2022/04/09 05:59:39;;;;;;;;;;;5.00;99.90;;;;;;5067386;28;19928;-77
2022/04/09 06:02:06;;;;;;;;;;;5.00;99.90;;;;;;5067229;28;19932;-78
2022/04/09 06:04:32;;;;;;;;;;;5.00;99.90;;;;;;5068533;28;19939;-77
2022/04/09 06:06:59;;;;;;;;;;;5.00;99.90;;;;;;5070314;28;19925;-77
2022/04/09 06:09:26;;;;;;;;;;;5.10;99.90;;;;;;5069523;28;19933;-78
2022/04/09 06:11:52;;;;;;;;;;;5.20;99.90;;;;;;5068382;28;20273;-77
2022/04/09 06:14:19;;;;;;;;;;;5.30;99.90;;;;;;5071993;28;19949;-77
2022/04/09 06:16:46;;;;;;;;;;;5.50;99.90;;;;;;5063709;28;19928;-77
2022/04/09 06:19:12;;;;;;;;;;;5.50;99.90;;;;;;5070204;28;19936;-77
2022/04/09 06:21:39;;;;;;;;;;;5.40;99.90;;;;;;5067873;28;19931;-78
2022/04/09 06:24:05;;;;;;;;;;;5.60;99.90;;;;;;5066373;28;19935;-78
2022/04/09 06:26:32;;;;;;;;;;;5.70;99.90;;;;;;5068250;28;20391;-78
2022/04/09 06:28:58;;;;;;;;;;;5.90;99.90;;;;;;5068999;28;19924;-77
2022/04/09 06:31:25;;;;;;;;;;;6.00;99.90;;;;;;5068221;28;19932;-78
2022/04/09 06:33:53;;;;;;;;;;;6.20;99.90;;;;;;5102115;28;19940;-77
2022/04/09 06:36:19;;;;;;;;;;;6.30;99.90;;;;;;5068540;28;19931;-77
2022/04/09 06:38:46;;;;;;;;;;;6.20;99.90;;;;;;5069185;28;19932;-77
2022/04/09 06:41:12;;;;;;;;;;;6.10;99.90;;;;;;5067845;28;20355;-77
2022/04/09 06:43:39;;;;;;;;;;;6.00;99.90;;;;;;5068848;28;19924;-77
2022/04/09 06:46:06;;;;;;;;;;;5.80;99.90;;;;;;5056907;28;19928;-78
2022/04/09 06:48:32;;;;;;;;;;;5.70;99.90;;;;;;5058561;28;19933;-77
2022/04/09 06:50:59;;;;;;;;;;;5.50;99.90;;;;;;5068753;28;20417;-77
2022/04/09 06:53:26;;;;;;;;;;;5.50;99.90;;;;;;5067208;28;20012;-78
2022/04/09 06:55:52;;;;;;;;;;;5.60;99.90;;;;;;5068594;28;19939;-78
2022/04/09 06:58:19;;;;;;;;;;;5.80;99.90;;;;;;5067438;28;19924;-78
2022/04/09 07:00:45;;;;;;;;;;;6.00;99.90;;;;;;5067392;28;20367;-78
2022/04/09 07:03:13;;;;;;;;;;;6.20;99.90;;;;;;5069476;28;19924;-77
2022/04/09 07:05:39;;;;;;;;;;;6.40;99.90;;;;;;5068837;28;19978;-78
2022/04/09 07:08:07;;;;;;;;;;;6.60;99.90;;;;;;5069063;28;19928;-78
2022/04/09 07:10:34;;;;;;;;;;;6.80;99.90;;;;;;5067518;28;19931;-78
2022/04/09 07:13:01;;;;;;;;;;;7.00;99.90;;;;;;5069311;28;19997;-78
2022/04/09 07:15:28;;;;;;;;;;;7.20;99.90;;;;;;5068740;28;19939;-79
2022/04/09 07:17:55;;;;;;;;;;;7.30;99.90;;;;;;5068588;28;19931;-77
2022/04/09 07:20:22;;;;;;;;;;;7.30;99.90;;;;;;5068590;28;20434;-77
2022/04/09 07:22:48;;;;;;;;;;;7.20;99.90;;;;;;5069673;28;19959;-76
2022/04/09 07:25:16;;;;;;;;;;;7.20;99.90;;;;;;5068891;28;19925;-76
2022/04/09 07:27:43;;;;;;;;;;;7.30;99.90;;;;;;5066673;28;19974;-77
2022/04/09 07:30:09;;;;;;;;;;;7.40;99.90;;;;;;5064472;28;19935;-77
2022/04/09 07:32:36;;;;;;;;;;;7.60;99.90;;;;;;5069530;28;20581;-77
2022/04/09 07:35:03;;;;;;;;;;;7.60;99.90;;;;;;5067797;28;19929;-78
2022/04/09 07:37:29;;;;;;;;;;;7.50;99.90;;;;;;5068205;28;19967;-77
2022/04/09 07:39:56;;;;;;;;;;;7.50;99.90;;;;;;5066776;28;19936;-78
2022/04/09 07:42:23;;;;;;;;;;;7.50;99.90;;;;;;5068069;28;19951;-77
2022/04/09 07:44:49;;;;;;;;;;;7.60;99.90;;;;;;5065483;28;19928;-77
2022/04/09 07:47:16;;;;;;;;;;;7.70;99.90;;;;;;5068774;28;19931;-77
2022/04/09 07:49:44;;;;;;;;;;;7.70;99.90;;;;;;5066406;28;20441;-78
2022/04/09 07:52:10;;;;;;;;;;;7.70;99.90;;;;;;5067666;28;19924;-78
2022/04/09 07:54:37;;;;;;;;;;;7.80;99.90;;;;;;5064842;28;20291;-77
2022/04/09 07:57:04;;;;;;;;;;;7.70;99.90;;;;;;5068600;28;19924;-78
2022/04/09 07:59:30;;;;;;;;;;;7.80;99.90;;;;;;5067875;28;19929;-79
2022/04/09 08:01:57;;;;;;;;;;;8.00;99.90;;;;;;5066473;28;19924;-77
2022/04/09 08:04:23;;;;;;;;;;;8.10;99.90;;;;;;5068582;28;19928;-77
2022/04/09 08:06:50;;;;;;;;;;;8.10;99.90;;;;;;5068162;28;19930;-77
2022/04/09 08:09:16;;;;;;;;;;;8.20;99.90;;;;;;5069401;28;19940;-76
2022/04/09 08:11:43;;;;;;;;;;;8.40;99.90;;;;;;5067579;28;19958;-77
2022/04/09 08:14:10;;;;;;;;;;;8.40;99.90;;;;;;5067680;28;19935;-78
2022/04/09 08:16:38;;;;;;;;;;;8.40;99.90;;;;;;5067874;28;19925;-78
2022/04/09 08:19:04;;;;;;;;;;;8.20;99.90;;;;;;5067559;28;19925;-78
2022/04/09 08:21:31;;;;;;;;;;;8.20;99.90;;;;;;5064617;28;19928;-79
2022/04/09 08:23:57;;;;;;;;;;;8.10;99.90;;;;;;5063922;28;19928;-78
2022/04/09 08:26:24;;;;;;;;;;;8.20;99.90;;;;;;5100495;28;20027;-78
2022/04/09 08:28:50;;;;;;;;;;;8.10;99.90;;;;;;5068008;28;19951;-78
2022/04/09 08:31:17;;;;;;;;;;;8.10;99.90;;;;;;5068723;28;20333;-78
2022/04/09 08:33:44;;;;;;;;;;;8.50;99.90;;;;;;5065657;28;19931;-78
2022/04/09 08:36:10;;;;;;;;;;;8.50;99.90;;;;;;5068344;28;20015;-78
2022/04/09 08:38:37;;;;;;;;;;;8.70;99.90;;;;;;5065127;28;19932;-78
2022/04/09 08:41:04;;;;;;;;;;;8.70;99.90;;;;;;5068705;28;19932;-78
2022/04/09 08:43:30;;;;;;;;;;;8.80;99.90;;;;;;5067319;28;19928;-78
2022/04/09 08:45:57;;;;;;;;;;;8.80;99.90;;;;;;5065887;28;19924;-78
2022/04/09 08:48:23;;;;;;;;;;;8.50;99.90;;;;;;5063206;28;19925;-78
2022/04/09 08:50:50;;;;;;;;;;;8.60;99.90;;;;;;5068810;28;19932;-77
2022/04/09 08:53:16;;;;;;;;;;;8.10;99.90;;;;;;5067812;28;20427;-77
2022/04/09 08:55:44;;;;;;;;;;;7.40;99.90;;;;;;5067015;28;19925;-77
2022/04/09 08:58:10;;;;;;;;;;;6.70;99.90;;;;;;5067199;28;19928;-78
2022/04/09 09:00:37;;;;;;;;;;;6.70;99.90;;;;;;5056336;28;19936;-79
2022/04/09 09:03:03;;;;;;;;;;;6.50;99.90;;;;;;5061675;28;19928;-78
2022/04/09 09:05:30;;;;;;;;;;;6.50;99.90;;;;;;5066075;28;20021;-78
2022/04/09 09:07:57;;;;;;;;;;;6.40;99.90;;;;;;5056102;28;20671;-78
2022/04/09 09:10:24;;;;;;;;;;;6.50;99.90;;;;;;5068463;28;19935;-77
2022/04/09 09:12:50;;;;;;;;;;;6.60;99.90;;;;;;5066434;28;20011;-77
2022/04/09 09:15:17;;;;;;;;;;;6.90;99.90;;;;;;5068894;28;20323;-76
2022/04/09 09:17:43;;;;;;;;;;;7.10;99.90;;;;;;5056851;28;19925;-76
2022/04/09 09:20:10;;;;;;;;;;;7.20;99.90;;;;;;5067356;28;20183;-77
2022/04/09 09:22:36;;;;;;;;;;;6.70;99.90;;;;;;5056621;28;19951;-79
2022/04/09 09:25:03;;;;;;;;;;;6.10;99.90;;;;;;5057695;28;19935;-76
2022/04/09 09:27:30;;;;;;;;;;;6.00;99.90;;;;;;5069123;28;20514;-77
2022/04/09 09:29:56;;;;;;;;;;;5.50;99.90;;;;;;5069327;28;19955;-77
2022/04/09 09:32:24;;;;;;;;;;;5.60;99.90;;;;;;5068482;28;19924;-78
2022/04/09 09:34:51;;;;;;;;;;;5.50;99.90;;;;;;5067402;28;19974;-77
2022/04/09 09:37:17;;;;;;;;;;;5.50;99.90;;;;;;5049020;28;20368;-77
2022/04/09 09:39:45;;;;;;;;;;;5.50;99.90;;;;;;5058898;28;19925;-77
2022/04/09 09:42:11;;;;;;;;;;;5.70;99.90;;;;;;5064936;28;19928;-77
2022/04/09 09:44:38;;;;;;;;;;;5.70;99.90;;;;;;5064963;28;19932;-78
2022/04/09 09:47:05;;;;;;;;;;;5.70;99.90;;;;;;5068093;28;20531;-76
2022/04/09 09:49:31;;;;;;;;;;;5.90;99.90;;;;;;5067620;28;19928;-77
2022/04/09 09:51:58;;;;;;;;;;;6.00;99.90;;;;;;5060240;28;19924;-77
2022/04/09 09:54:24;;;;;;;;;;;6.20;99.90;;;;;;5051472;28;19936;-76
2022/04/09 09:56:51;;;;;;;;;;;6.50;99.90;;;;;;5067617;28;19939;-77
2022/04/09 09:59:17;;;;;;;;;;;6.70;99.90;;;;;;5067212;28;19924;-78
2022/04/09 10:01:44;;;;;;;;;;;6.90;99.90;;;;;;5067967;28;20398;-77
2022/04/09 10:04:11;;;;;;;;;;;7.10;99.90;;;;;;5067202;28;20259;-77
2022/04/09 10:06:38;;;;;;;;;;;7.20;99.90;;;;;;5058403;28;20024;-77
2022/04/09 10:09:06;;;;;;;;;;;7.40;99.90;;;;;;5065317;28;19932;-77
2022/04/09 10:11:33;;;;;;;;;;;7.60;99.90;;;;;;5061269;28;20404;-77
2022/04/09 10:13:59;;;;;;;;;;;7.90;99.90;;;;;;5064309;28;20467;-77
2022/04/09 10:16:27;;;;;;;;;;;8.00;99.90;;;;;;5059057;28;19979;-77
2022/04/09 10:18:54;;;;;;;;;;;8.20;99.90;;;;;;5064610;28;19971;-77
2022/04/09 10:21:21;;;;;;;;;;;8.30;99.90;;;;;;5065012;28;20003;-77
2022/04/09 10:23:47;;;;;;;;;;;8.00;99.90;;;;;;5063026;28;20395;-77
2022/04/09 10:26:14;;;;;;;;;;;7.70;99.90;;;;;;5059446;28;19932;-77
2022/04/09 10:28:40;;;;;;;;;;;7.50;99.90;;;;;;5066161;28;19932;-78
2022/04/09 10:31:10;;;;;;;;;;;7.40;99.90;;;;;;5060726;28;19929;-77
2022/04/09 10:33:37;;;;;;;;;;;7.30;99.90;;;;;;5067871;28;20005;-77
2022/04/09 10:36:04;;;;;;;;;;;7.10;99.90;;;;;;5059732;28;19924;-77
2022/04/09 10:38:31;;;;;;;;;;;7.00;99.90;;;;;;5065875;28;19928;-78
2022/04/09 10:40:58;;;;;;;;;;;7.00;99.90;;;;;;5062194;28;20386;-78
2022/04/09 10:43:25;;;;;;;;;;;7.20;99.90;;;;;;5066393;28;19928;-78
2022/04/09 10:45:51;;;;;;;;;;;7.40;99.90;;;;;;5061494;28;20382;-77
2022/04/09 10:48:18;;;;;;;;;;;7.60;99.90;;;;;;5091172;28;19928;-77
2022/04/09 10:50:44;;;;;;;;;;;7.70;99.90;;;;;;5067022;28;20411;-79
2022/04/09 10:53:11;;;;;;;;;;;7.80;99.90;;;;;;5060530;28;19928;-77
2022/04/09 10:55:37;;;;;;;;;;;7.80;99.90;;;;;;5064247;28;19938;-76
2022/04/09 10:58:10;;;;;;;;;;;7.70;99.90;;;;;;5068294;28;19975;-76
2022/04/09 11:00:37;;;;;;;;;;;7.70;99.90;;;;;;5065559;28;19929;-77
2022/04/09 11:03:04;;;;;;;;;;;7.50;99.90;;;;;;5099658;27;19925;-76
2022/04/09 11:05:30;;;;;;;;;;;7.60;99.90;;;;;;5067519;28;19935;-77
2022/04/09 11:07:57;;;;;;;;;;;7.60;99.90;;;;;;5070962;28;19936;-76
2022/04/09 11:10:23;;;;;;;;;;;7.60;99.90;;;;;;5065008;28;20019;-77
2022/04/09 11:12:50;;;;;;;;;;;7.90;99.90;;;;;;5067700;28;19939;-77
2022/04/09 11:15:17;;;;;;;;;;;8.00;99.90;;;;;;5068258;28;19924;-78
2022/04/09 11:17:45;;;;;;;;;;;8.10;99.90;;;;;;5068975;28;19932;-77
2022/04/09 11:20:12;;;;;;;;;;;8.10;99.90;;;;;;5067344;28;20620;-77
2022/04/09 11:22:38;;;;;;;;;;;8.20;99.90;;;;;;5069772;28;19929;-77
2022/04/09 11:25:05;;;;;;;;;;;8.10;99.90;;;;;;5065465;28;19928;-77
2022/04/09 11:27:31;;;;;;;;;;;8.20;99.90;;;;;;5070166;28;20372;-77
2022/04/09 11:29:58;;;;;;;;;;;8.20;99.90;;;;;;5066780;28;20007;-77
2022/04/09 11:32:24;;;;;;;;;;;8.30;99.90;;;;;;5064146;28;19925;-77
2022/04/09 11:34:51;;;;;;;;;;;8.50;99.90;;;;;;5068399;28;20094;-77
2022/04/09 11:37:18;;;;;;;;;;;8.40;99.90;;;;;;5067148;28;19936;-77
2022/04/09 11:39:44;;;;;;;;;;;8.50;99.90;;;;;;5066893;28;20395;-77
2022/04/09 11:42:11;;;;;;;;;;;8.70;99.90;;;;;;5061407;28;20577;-78
2022/04/09 11:44:38;;;;;;;;;;;8.80;99.90;;;;;;5058882;28;19931;-76
2022/04/09 11:47:05;;;;;;;;;;;8.90;99.90;;;;;;5059852;28;19982;-76
2022/04/09 11:49:32;;;;;;;;;;;9.10;99.90;;;;;;5049595;28;19964;-76
2022/04/09 11:51:58;;;;;;;;;;;8.90;99.90;;;;;;5080525;28;19924;-76
2022/04/09 11:54:27;;;;;;;;;;;8.90;99.90;;;;;;5064673;28;20609;-77
2022/04/09 11:56:53;;;;;;;;;;;8.90;99.90;;;;;;5069945;28;19928;-76
2022/04/09 11:59:20;;;;;;;;;;;8.90;99.90;;;;;;5065530;28;19939;-79
2022/04/09 12:01:46;;;;;;;;;;;8.80;99.90;;;;;;5067696;28;20385;-76
2022/04/09 12:04:13;;;;;;;;;;;9.00;99.90;;;;;;5067236;28;19982;-77
2022/04/09 12:06:39;;;;;;;;;;;8.90;99.90;;;;;;5066521;28;19928;-77
2022/04/09 12:09:06;;;;;;;;;;;9.00;99.90;;;;;;5064707;28;19935;-77
2022/04/09 12:11:33;;;;;;;;;;;9.10;99.90;;;;;;5061356;28;19935;-77
2022/04/09 12:13:59;;;;;;;;;;;9.30;99.90;;;;;;5058490;28;19939;-77
2022/04/09 12:16:26;;;;;;;;;;;9.20;99.90;;;;;;5064854;28;19925;-77
2022/04/09 12:18:53;;;;;;;;;;;9.20;99.90;;;;;;5064752;28;20288;-79
2022/04/09 12:21:19;;;;;;;;;;;9.20;99.90;;;;;;5063464;28;19924;-76
2022/04/09 12:23:46;;;;;;;;;;;9.10;99.90;;;;;;5066667;28;20415;-77
2022/04/09 12:26:13;;;;;;;;;;;9.00;99.90;;;;;;5066202;28;20272;-76
2022/04/09 12:28:39;;;;;;;;;;;9.00;99.90;;;;;;5064542;28;19935;-79
2022/04/09 12:31:07;;;;;;;;;;;9.10;99.90;;;;;;5054972;28;19928;-76
2022/04/09 12:33:34;;;;;;;;;;;9.30;99.90;;;;;;5067174;28;20425;-79
2022/04/09 12:36:01;;;;;;;;;;;9.20;99.90;;;;;;5063580;28;19986;-76
2022/04/09 12:38:27;;;;;;;;;;;9.10;99.90;;;;;;5066200;28;19935;-76
2022/04/09 12:40:54;;;;;;;;;;;9.20;99.90;;;;;;5054579;28;19929;-78
2022/04/09 12:43:20;;;;;;;;;;;9.00;99.90;;;;;;5067620;28;20027;-77
2022/04/09 12:45:47;;;;;;;;;;;8.80;99.90;;;;;;5065611;28;20069;-77
2022/04/09 12:48:13;;;;;;;;;;;8.80;99.90;;;;;;5064968;28;20426;-76
2022/04/09 12:50:42;;;;;;;;;;;8.80;99.90;;;;;;5067392;28;20462;-77
2022/04/09 12:53:08;;;;;;;;;;;8.90;99.90;;;;;;5056189;28;20015;-77
2022/04/09 12:55:35;;;;;;;;;;;9.00;99.90;;;;;;5063171;28;19928;-77
2022/04/09 12:58:02;;;;;;;;;;;9.10;99.90;;;;;;5063973;28;20350;-77
2022/04/09 13:00:32;;;;;;;;;;;9.40;99.90;;;;;;5066029;28;19924;-77
2022/04/09 13:02:58;;;;;;;;;;;9.70;99.90;;;;;;5063853;28;19928;-77
2022/04/09 13:05:25;;;;;;;;;;;9.80;99.90;;;;;;5064561;28;20371;-77
2022/04/09 13:07:51;;;;;;;;;;;9.80;99.90;;;;;;5066818;28;20027;-77
2022/04/09 13:10:18;;;;;;;;;;;9.60;99.90;;;;;;5059793;28;19936;-76
2022/04/09 13:12:44;;;;;;;;;;;9.50;99.90;;;;;;5065940;28;19954;-77
2022/04/09 13:15:11;;;;;;;;;;;9.40;99.90;;;;;;5057929;28;20047;-77
2022/04/09 13:17:38;;;;;;;;;;;9.40;99.90;;;;;;5065735;28;19929;-77
2022/04/09 13:20:04;;;;;;;;;;;9.20;99.90;;;;;;5066614;28;20570;-77
2022/04/09 13:22:31;;;;;;;;;;;9.40;99.90;;;;;;5067928;28;20012;-76
2022/04/09 13:24:57;;;;;;;;;;;9.10;99.90;;;;;;5065545;28;19931;-79
2022/04/09 13:27:24;;;;;;;;;;;9.20;99.90;;;;;;5066892;28;19971;-76
2022/04/09 13:29:51;;;;;;;;;;;9.10;99.90;;;;;;5067752;28;19928;-76
2022/04/09 13:32:17;;;;;;;;;;;9.10;99.90;;;;;;5065462;28;19928;-77
2022/04/09 13:34:45;;;;;;;;;;;9.10;99.90;;;;;;5056426;28;19929;-77
2022/04/09 13:37:12;;;;;;;;;;;9.20;99.90;;;;;;5067345;28;19959;-78
2022/04/09 13:39:38;;;;;;;;;;;9.00;99.90;;;;;;5065228;28;19935;-79
2022/04/09 13:42:06;;;;;;;;;;;9.20;99.90;;;;;;5064876;28;19929;-77
2022/04/09 13:44:33;;;;;;;;;;;9.20;99.90;;;;;;5066822;28;19933;-77
2022/04/09 13:46:59;;;;;;;;;;;9.20;99.90;;;;;;5065004;28;19925;-80
2022/04/09 13:49:26;;;;;;;;;;;9.30;99.90;;;;;;5067604;28;20398;-78
2022/04/09 13:51:52;;;;;;;;;;;9.40;99.90;;;;;;5061749;28;19929;-78
2022/04/09 13:54:19;;;;;;;;;;;9.50;99.90;;;;;;5061647;28;19924;-77
2022/04/09 13:56:46;;;;;;;;;;;9.40;99.90;;;;;;5065048;28;19948;-77
2022/04/09 13:59:12;;;;;;;;;;;9.10;99.90;;;;;;5062978;28;19935;-79
2022/04/09 14:01:39;;;;;;;;;;;8.90;99.90;;;;;;5070658;28;19928;-78
2022/04/09 14:04:05;;;;;;;;;;;8.80;99.90;;;;;;5074051;28;19982;-77
2022/04/09 14:06:32;;;;;;;;;;;9.00;99.90;;;;;;5067712;28;20379;-78
2022/04/09 14:09:00;;;;;;;;;;;9.00;99.90;;;;;;5061722;28;20171;-78
2022/04/09 14:11:26;;;;;;;;;;;9.10;99.90;;;;;;5068922;28;19925;-77
2022/04/09 14:13:53;;;;;;;;;;;9.10;99.90;;;;;;5069600;28;19928;-78
2022/04/09 14:16:20;;;;;;;;;;;9.10;99.90;;;;;;5059536;28;19932;-78
2022/04/09 14:18:46;;;;;;;;;;;9.20;99.90;;;;;;5099916;28;19929;-78
2022/04/09 14:21:13;;;;;;;;;;;9.10;99.90;;;;;;5068158;28;19932;-78
2022/04/09 14:23:41;;;;;;;;;;;9.20;99.90;;;;;;5065958;28;19929;-79
2022/04/09 14:26:08;;;;;;;;;;;9.30;99.90;;;;;;5075620;28;20433;-78